createdAt,value
2019-01-10T00:00:19.866Z,18.48
2019-01-10T00:02:48.156Z,18.57
2019-01-10T00:05:16.574Z,18.23
2019-01-10T00:07:44.921Z,18.55
2019-01-10T00:10:15.849Z,18.20
2019-01-10T00:12:44.128Z,18.07
2019-01-10T00:15:17.219Z,18.45
2019-01-10T00:17:45.663Z,18.25
2019-01-10T00:20:15.489Z,18.30
2019-01-10T00:22:43.877Z,18.77
2019-01-10T00:25:13.470Z,18.35
2019-01-10T00:27:41.775Z,18.00
2019-01-10T00:30:18.890Z,18.17
2019-01-10T00:32:47.342Z,17.32
2019-01-10T00:35:15.613Z,18.45
2019-01-10T00:37:43.882Z,19.23
2019-01-10T00:40:16.626Z,18.02
2019-01-10T00:42:49.548Z,19.02
2019-01-10T00:45:17.703Z,19.07
2019-01-10T00:47:46.382Z,17.48
2019-01-10T00:50:21.619Z,18.35
2019-01-10T00:52:49.911Z,17.60
2019-01-10T00:55:18.213Z,19.23
2019-01-10T00:57:48.554Z,17.15
2019-01-10T01:00:25.141Z,18.35
2019-01-10T01:02:53.515Z,17.25
2019-01-10T01:05:22.279Z,18.45
2019-01-10T01:07:50.907Z,17.70
2019-01-10T01:10:21.430Z,18.23
2019-01-10T01:12:58.016Z,18.02
2019-01-10T01:15:20.019Z,17.32
2019-01-10T01:17:48.318Z,17.40
2019-01-10T01:20:21.988Z,18.07
2019-01-10T01:22:50.276Z,18.77
2019-01-10T01:25:18.554Z,17.95
2019-01-10T01:27:46.868Z,17.65
2019-01-10T01:30:23.889Z,18.02
2019-01-10T01:32:52.281Z,18.05
2019-01-10T01:35:21.702Z,17.42
2019-01-10T01:37:50.122Z,16.90
2019-01-10T01:40:20.147Z,18.17
2019-01-10T01:42:48.543Z,17.25
2019-01-10T01:45:18.430Z,17.65
2019-01-10T01:47:46.702Z,17.55
2019-01-10T01:50:17.334Z,17.90
2019-01-10T01:52:46.041Z,17.32
2019-01-10T01:55:14.383Z,17.67
2019-01-10T01:57:42.785Z,17.57
2019-01-10T02:00:16.824Z,17.98
2019-01-10T02:02:45.271Z,17.77
2019-01-10T02:05:13.770Z,17.15
2019-01-10T02:07:42.055Z,17.17
2019-01-10T02:10:23.153Z,17.57
2019-01-10T02:12:51.452Z,17.17
2019-01-10T02:15:19.754Z,17.90
2019-01-10T02:17:49.163Z,17.15
2019-01-10T02:20:17.799Z,18.20
2019-01-10T02:22:46.226Z,17.73
2019-01-10T02:25:15.966Z,17.87
2019-01-10T02:27:44.250Z,17.60
2019-01-10T02:30:23.756Z,18.57
2019-01-10T02:32:52.071Z,17.55
2019-01-10T02:35:20.563Z,18.10
2019-01-10T02:37:48.839Z,17.42
2019-01-10T02:40:17.181Z,18.05
2019-01-10T02:42:45.542Z,16.80
2019-01-10T02:45:17.369Z,17.42
2019-01-10T02:47:45.671Z,16.85
2019-01-10T02:50:19.745Z,16.50
2019-01-10T02:52:48.039Z,17.00
2019-01-10T02:55:16.382Z,17.35
2019-01-10T02:57:44.664Z,17.25
2019-01-10T03:00:19.051Z,17.98
2019-01-10T03:02:47.712Z,17.52
2019-01-10T03:05:16.116Z,17.42
2019-01-10T03:07:44.401Z,17.07
2019-01-10T03:10:15.958Z,17.07
2019-01-10T03:12:44.292Z,17.40
2019-01-10T03:15:12.725Z,16.67
2019-01-10T03:17:41.013Z,17.27
2019-01-10T03:20:12.849Z,17.20
2019-01-10T03:22:41.198Z,17.07
2019-01-10T03:25:09.475Z,17.37
2019-01-10T03:27:37.869Z,17.15
2019-01-10T03:30:09.766Z,16.70
2019-01-10T03:32:38.437Z,18.80
2019-01-10T03:35:08.666Z,16.65
2019-01-10T03:37:36.943Z,17.62
2019-01-10T03:40:11.642Z,17.80
2019-01-10T03:42:40.487Z,17.52
2019-01-10T03:45:11.921Z,16.77
2019-01-10T03:47:40.199Z,17.60
2019-01-10T03:50:10.850Z,17.35
2019-01-10T03:52:39.345Z,17.57
2019-01-10T03:55:07.993Z,16.95
2019-01-10T03:57:36.271Z,16.73
2019-01-10T04:00:07.865Z,18.23
2019-01-10T04:02:36.172Z,17.50
2019-01-10T04:05:06.004Z,17.52
2019-01-10T04:07:34.279Z,17.50
2019-01-10T04:10:02.610Z,17.85
2019-01-10T04:12:31.040Z,16.02
2019-01-10T04:14:59.321Z,17.32
2019-01-10T04:17:27.661Z,17.17
2019-01-10T04:19:55.983Z,17.42
2019-01-10T04:22:24.280Z,17.05
2019-01-10T04:24:52.588Z,17.25
2019-01-10T04:27:20.867Z,16.48
2019-01-10T04:29:49.161Z,17.23
2019-01-10T04:32:17.645Z,16.85
2019-01-10T04:34:45.961Z,17.30
2019-01-10T04:37:14.237Z,16.67
2019-01-10T04:39:42.523Z,16.50
2019-01-10T04:42:11.028Z,18.42
2019-01-10T04:44:39.393Z,17.02
2019-01-10T04:47:07.698Z,17.50
2019-01-10T04:49:35.986Z,17.80
2019-01-10T04:52:04.308Z,17.00
2019-01-10T04:54:32.661Z,16.27
2019-01-10T04:57:00.948Z,17.32
2019-01-10T04:59:29.263Z,17.52
2019-01-10T05:01:57.623Z,17.27
2019-01-10T05:04:26.048Z,16.55
2019-01-10T05:06:54.347Z,17.62
2019-01-10T05:09:22.679Z,17.42
2019-01-10T05:11:51.540Z,17.37
2019-01-10T05:14:19.852Z,16.82
2019-01-10T05:16:48.223Z,17.05
2019-01-10T05:19:16.511Z,16.93
2019-01-10T05:21:44.790Z,16.70
2019-01-10T05:24:13.102Z,17.98
2019-01-10T05:26:41.451Z,17.75
2019-01-10T05:29:09.723Z,16.45
2019-01-10T05:31:38.058Z,17.20
2019-01-10T05:34:06.362Z,16.80
2019-01-10T05:36:34.671Z,15.78
2019-01-10T05:39:04.650Z,17.00
2019-01-10T05:41:32.926Z,17.55
2019-01-10T05:44:01.210Z,15.95
2019-01-10T05:46:30.050Z,16.20
2019-01-10T05:48:58.394Z,17.15
2019-01-10T05:51:26.748Z,17.37
2019-01-10T05:53:55.138Z,16.67
2019-01-10T05:56:23.438Z,16.57
2019-01-10T05:58:51.723Z,16.95
2019-01-10T06:01:20.116Z,17.23
2019-01-10T06:03:53.201Z,16.62
2019-01-10T06:06:19.853Z,17.30
2019-01-10T06:08:48.157Z,16.75
2019-01-10T06:11:16.442Z,18.27
2019-01-10T06:13:44.721Z,16.48
2019-01-10T06:16:13.026Z,16.55
2019-01-10T06:18:41.516Z,16.07
2019-01-10T06:21:09.865Z,17.10
2019-01-10T06:23:38.216Z,16.23
2019-01-10T06:26:06.623Z,16.15
2019-01-10T06:28:34.908Z,17.82
2019-01-10T06:31:03.245Z,16.82
2019-01-10T06:33:31.549Z,17.32
2019-01-10T06:35:59.927Z,16.62
2019-01-10T06:38:28.252Z,16.60
2019-01-10T06:40:56.574Z,17.12
2019-01-10T06:43:24.854Z,16.85
2019-01-10T06:45:53.163Z,17.20
2019-01-10T06:48:21.443Z,17.05
2019-01-10T06:50:49.766Z,17.40
2019-01-10T06:53:18.171Z,16.32
2019-01-10T06:55:46.639Z,18.80
2019-01-10T06:58:15.052Z,18.10
2019-01-10T07:00:43.390Z,22.50
2019-01-10T07:03:11.796Z,25.27
2019-01-10T07:05:40.086Z,25.45
2019-01-10T07:08:08.398Z,25.23
2019-01-10T07:10:36.720Z,24.18
2019-01-10T07:13:05.054Z,24.43
2019-01-10T07:15:33.511Z,24.52
2019-01-10T07:18:01.910Z,24.23
2019-01-10T07:20:30.647Z,22.00
2019-01-10T07:22:58.939Z,25.05
2019-01-10T07:25:27.223Z,22.07
2019-01-10T07:27:56.766Z,23.70
2019-01-10T07:30:35.527Z,22.02
2019-01-10T07:32:56.273Z,22.85
2019-01-10T07:35:26.254Z,21.68
2019-01-10T07:37:54.996Z,22.02
2019-01-10T07:40:23.504Z,21.97
2019-01-10T07:42:51.858Z,21.60
2019-01-10T07:45:22.300Z,20.88
2019-01-10T07:47:50.803Z,21.07
2019-01-10T07:50:23.979Z,22.02
2019-01-10T07:52:52.304Z,22.15
2019-01-10T07:55:20.690Z,22.10
2019-01-10T07:57:49.039Z,21.35
2019-01-10T08:00:20.530Z,21.48
2019-01-10T08:02:48.811Z,22.70
2019-01-10T08:05:17.085Z,23.70
2019-01-10T08:07:45.380Z,22.13
2019-01-10T08:10:17.772Z,20.88
2019-01-10T08:12:46.086Z,21.77
2019-01-10T08:15:17.321Z,20.52
2019-01-10T08:17:45.600Z,21.35
2019-01-10T08:20:14.280Z,20.37
2019-01-10T08:22:42.630Z,21.10
2019-01-10T08:25:10.962Z,20.15
2019-01-10T08:27:39.614Z,20.37
2019-01-10T08:30:18.928Z,20.27
2019-01-10T08:32:47.290Z,20.32
2019-01-10T08:35:17.912Z,21.85
2019-01-10T08:37:46.191Z,20.65
2019-01-10T08:40:14.759Z,20.82
2019-01-10T08:42:43.056Z,20.62
2019-01-10T08:45:11.470Z,23.15
2019-01-10T08:47:39.774Z,21.62
2019-01-10T08:50:17.083Z,20.48
2019-01-10T08:52:45.434Z,21.20
2019-01-10T08:55:13.714Z,21.75
2019-01-10T08:57:42.010Z,23.87
2019-01-10T09:00:18.278Z,21.62
2019-01-10T09:02:46.715Z,21.42
2019-01-10T09:05:15.195Z,21.68
2019-01-10T09:07:44.131Z,20.82
2019-01-10T09:10:15.683Z,21.48
2019-01-10T09:12:43.967Z,21.05
2019-01-10T09:15:12.331Z,21.42
2019-01-10T09:17:40.671Z,19.57
2019-01-10T09:20:12.753Z,21.90
2019-01-10T09:22:41.030Z,20.52
2019-01-10T09:25:09.339Z,21.12
2019-01-10T09:27:37.722Z,21.87
2019-01-10T09:30:14.773Z,20.55
2019-01-10T09:32:43.139Z,19.42
2019-01-10T09:35:11.559Z,21.62
2019-01-10T09:37:39.846Z,19.60
2019-01-10T09:40:11.604Z,18.60
2019-01-10T09:42:40.230Z,18.02
2019-01-10T09:45:10.874Z,19.95
2019-01-10T09:47:39.163Z,19.67
2019-01-10T09:50:13.581Z,20.45
2019-01-10T09:52:41.853Z,18.85
2019-01-10T09:55:10.134Z,18.73
2019-01-10T09:57:38.786Z,19.12
2019-01-10T10:00:13.268Z,19.15
2019-01-10T10:02:41.590Z,19.32
2019-01-10T10:05:10.297Z,18.60
2019-01-10T10:07:38.586Z,18.42
2019-01-10T10:10:12.846Z,18.82
2019-01-10T10:12:41.179Z,19.20
2019-01-10T10:15:10.508Z,19.17
2019-01-10T10:17:38.832Z,18.62
2019-01-10T10:20:10.392Z,19.40
2019-01-10T10:22:38.798Z,19.40
2019-01-10T10:25:07.073Z,20.80
2019-01-10T10:27:35.411Z,20.90
2019-01-10T10:30:06.384Z,19.40
2019-01-10T10:32:34.664Z,19.75
2019-01-10T10:35:02.981Z,19.17
2019-01-10T10:37:31.254Z,20.85
2019-01-10T10:39:59.534Z,20.43
2019-01-10T10:42:27.815Z,21.15
2019-01-10T10:44:56.128Z,21.73
2019-01-10T10:47:24.508Z,20.90
2019-01-10T10:49:52.915Z,21.23
2019-01-10T10:52:21.276Z,21.20
2019-01-10T10:54:49.550Z,20.55
2019-01-10T10:57:17.847Z,19.75
2019-01-10T10:59:46.130Z,21.50
2019-01-10T11:02:14.442Z,19.48
2019-01-10T11:04:42.710Z,18.62
2019-01-10T11:07:11.019Z,20.00
2019-01-10T11:09:39.334Z,19.32
2019-01-10T11:12:07.679Z,19.32
2019-01-10T11:14:36.049Z,20.15
2019-01-10T11:17:04.475Z,19.57
2019-01-10T11:19:32.750Z,19.15
2019-01-10T11:22:01.042Z,20.00
2019-01-10T11:24:29.403Z,18.92
2019-01-10T11:26:57.680Z,18.52
2019-01-10T11:29:26.027Z,19.42
2019-01-10T11:31:54.409Z,18.75
2019-01-10T11:34:22.710Z,18.57
2019-01-10T11:36:50.982Z,17.52
2019-01-10T11:39:19.338Z,14.98
2019-01-10T11:41:47.691Z,16.48
2019-01-10T11:44:16.254Z,15.65
2019-01-10T11:46:44.566Z,15.88
2019-01-10T11:49:12.847Z,15.28
2019-01-10T11:51:41.136Z,15.53
2019-01-10T11:54:09.436Z,16.02
2019-01-10T11:56:37.737Z,14.68
2019-01-10T11:59:06.090Z,16.42
2019-01-10T12:01:34.458Z,17.07
2019-01-10T12:04:02.754Z,16.48
2019-01-10T12:06:31.031Z,15.30
2019-01-10T12:08:59.335Z,16.32
2019-01-10T12:11:27.674Z,15.20
2019-01-10T12:13:55.958Z,15.98
2019-01-10T12:16:28.641Z,17.27
2019-01-10T12:18:59.149Z,16.67
2019-01-10T12:21:24.338Z,16.87
2019-01-10T12:23:52.810Z,17.00
2019-01-10T12:26:21.100Z,16.65
2019-01-10T12:28:49.555Z,17.25
2019-01-10T12:31:17.854Z,17.07
2019-01-10T12:33:46.307Z,16.97
2019-01-10T12:36:14.584Z,15.88
2019-01-10T12:38:42.863Z,14.68
2019-01-10T12:41:11.247Z,16.10
2019-01-10T12:43:39.541Z,15.13
2019-01-10T12:46:07.821Z,15.20
2019-01-10T12:48:36.092Z,15.63
2019-01-10T12:51:04.589Z,16.05
2019-01-10T12:53:33.132Z,14.47
2019-01-10T12:56:01.411Z,15.15
2019-01-10T12:58:29.701Z,15.68
2019-01-10T13:00:58.187Z,15.93
2019-01-10T13:03:26.681Z,15.23
2019-01-10T13:05:54.986Z,15.50
2019-01-10T13:08:23.335Z,16.02
2019-01-10T13:10:51.769Z,14.75
2019-01-10T13:13:20.197Z,14.83
2019-01-10T13:15:48.514Z,14.68
2019-01-10T13:18:16.873Z,14.90
2019-01-10T13:20:45.219Z,15.78
2019-01-10T13:23:13.491Z,13.93
2019-01-10T13:25:41.780Z,14.45
2019-01-10T13:28:10.091Z,14.65
2019-01-10T13:30:38.529Z,14.68
2019-01-10T13:33:06.806Z,14.65
2019-01-10T13:35:35.122Z,14.87
2019-01-10T13:38:03.550Z,14.90
2019-01-10T13:40:31.876Z,15.68
2019-01-10T13:43:00.227Z,14.83
2019-01-10T13:45:29.045Z,16.27
2019-01-10T13:47:57.395Z,16.55
2019-01-10T13:50:27.318Z,15.15
2019-01-10T13:52:55.794Z,15.85
2019-01-10T13:55:24.076Z,15.72
2019-01-10T13:57:52.347Z,15.45
2019-01-10T14:00:22.907Z,15.45
2019-01-10T14:02:51.191Z,15.93
2019-01-10T14:05:19.529Z,15.43
2019-01-10T14:07:47.838Z,14.75
2019-01-10T14:10:17.722Z,15.40
2019-01-10T14:12:46.006Z,16.02
2019-01-10T14:15:17.906Z,16.50
2019-01-10T14:17:46.197Z,16.75
2019-01-10T14:20:14.824Z,16.15
2019-01-10T14:22:43.098Z,16.65
2019-01-10T14:25:11.497Z,15.48
2019-01-10T14:27:39.869Z,15.93
2019-01-10T14:30:14.412Z,14.68
2019-01-10T14:32:42.705Z,15.72
2019-01-10T14:35:11.166Z,15.60
2019-01-10T14:37:39.742Z,15.15
2019-01-10T14:40:09.886Z,15.70
2019-01-10T14:42:38.390Z,16.45
2019-01-10T14:45:09.976Z,15.85
2019-01-10T14:47:38.331Z,15.83
2019-01-10T14:50:09.167Z,15.63
2019-01-10T14:52:37.465Z,15.60
2019-01-10T14:55:09.257Z,16.70
2019-01-10T14:57:37.549Z,17.12
2019-01-10T15:00:12.055Z,18.62
2019-01-10T15:02:40.674Z,36.15
2019-01-10T15:05:09.017Z,33.53
2019-01-10T15:07:37.348Z,34.55
2019-01-10T15:10:07.058Z,40.35
2019-01-10T15:12:35.489Z,40.70
2019-01-10T15:15:05.349Z,40.50
2019-01-10T15:17:33.652Z,40.40
2019-01-10T15:20:02.445Z,39.70
2019-01-10T15:22:30.766Z,38.85
2019-01-10T15:24:59.089Z,37.83
2019-01-10T15:27:27.394Z,36.30
2019-01-10T15:29:55.732Z,36.38
2019-01-10T15:32:24.091Z,34.70
2019-01-10T15:34:52.369Z,33.33
2019-01-10T15:37:20.680Z,32.30
2019-01-10T15:39:49.034Z,30.90
2019-01-10T15:42:17.382Z,30.88
2019-01-10T15:44:45.746Z,30.55
2019-01-10T15:47:16.756Z,30.37
2019-01-10T15:49:44.080Z,28.77
2019-01-10T15:52:13.252Z,29.80
2019-01-10T15:54:41.890Z,28.92
2019-01-10T15:57:10.188Z,28.70
2019-01-10T15:59:38.503Z,27.35
2019-01-10T16:02:06.777Z,28.10
2019-01-10T16:04:35.050Z,27.67
2019-01-10T16:07:03.398Z,26.70
2019-01-10T16:09:31.720Z,26.90
2019-01-10T16:12:00.006Z,26.68
2019-01-10T16:14:28.422Z,27.10
2019-01-10T16:16:56.810Z,26.82
2019-01-10T16:19:25.132Z,26.73
2019-01-10T16:21:53.582Z,25.82
2019-01-10T16:24:21.858Z,27.20
2019-01-10T16:26:50.133Z,26.17
2019-01-10T16:29:18.757Z,25.02
2019-01-10T16:31:47.122Z,26.82
2019-01-10T16:34:15.412Z,25.68
2019-01-10T16:36:43.869Z,25.35
2019-01-10T16:39:12.348Z,24.52
2019-01-10T16:41:40.703Z,25.60
2019-01-10T16:44:08.994Z,26.42
2019-01-10T16:46:37.270Z,25.08
2019-01-10T16:49:05.603Z,23.95
2019-01-10T16:51:33.941Z,25.08
2019-01-10T16:54:02.242Z,25.12
2019-01-10T16:56:30.659Z,24.05
2019-01-10T16:58:58.973Z,24.98
2019-01-10T17:01:27.249Z,24.37
2019-01-10T17:03:55.547Z,23.98
2019-01-10T17:06:23.932Z,23.20
2019-01-10T17:08:52.443Z,24.82
2019-01-10T17:11:20.727Z,23.50
2019-01-10T17:13:49.177Z,23.90
2019-01-10T17:16:17.487Z,23.25
2019-01-10T17:18:45.759Z,22.62
2019-01-10T17:21:14.141Z,22.85
2019-01-10T17:23:42.478Z,22.87
2019-01-10T17:26:10.815Z,23.92
2019-01-10T17:28:39.260Z,23.67
2019-01-10T17:31:07.536Z,22.67
2019-01-10T17:33:35.819Z,21.97
2019-01-10T17:36:04.118Z,23.07
2019-01-10T17:38:32.741Z,22.95
2019-01-10T17:41:01.102Z,22.13
2019-01-10T17:43:29.374Z,21.97
2019-01-10T17:45:58.125Z,23.15
2019-01-10T17:48:26.398Z,22.22
2019-01-10T17:50:54.713Z,22.45
2019-01-10T17:53:23.079Z,22.80
2019-01-10T17:55:51.361Z,22.48
2019-01-10T17:58:19.646Z,22.67
2019-01-10T18:00:47.981Z,22.60
2019-01-10T18:03:16.346Z,23.57
2019-01-10T18:05:44.847Z,23.60
2019-01-10T18:08:13.114Z,23.38
2019-01-10T18:10:41.404Z,22.62
2019-01-10T18:13:09.681Z,22.50
2019-01-10T18:15:38.076Z,21.57
2019-01-10T18:18:06.452Z,22.87
2019-01-10T18:20:38.250Z,20.95
2019-01-10T18:23:08.107Z,22.98
2019-01-10T18:25:36.406Z,22.40
2019-01-10T18:28:05.113Z,22.80
2019-01-10T18:30:33.431Z,21.97
2019-01-10T18:33:01.786Z,22.87
2019-01-10T18:35:30.666Z,23.27
2019-01-10T18:37:59.072Z,22.02
2019-01-10T18:40:27.405Z,22.13
2019-01-10T18:42:55.702Z,23.30
2019-01-10T18:45:26.877Z,22.42
2019-01-10T18:47:57.319Z,23.67
2019-01-10T18:50:25.452Z,21.68
2019-01-10T18:52:53.752Z,23.35
2019-01-10T18:55:22.046Z,23.60
2019-01-10T18:57:50.375Z,23.85
2019-01-10T19:00:29.122Z,24.10
2019-01-10T19:02:58.126Z,22.85
2019-01-10T19:05:27.132Z,22.40
2019-01-10T19:07:55.531Z,22.52
2019-01-10T19:10:24.019Z,22.27
2019-01-10T19:12:52.399Z,22.35
2019-01-10T19:15:20.758Z,23.12
2019-01-10T19:17:49.033Z,22.95
2019-01-10T19:20:22.615Z,22.07
2019-01-10T19:22:51.004Z,22.42
2019-01-10T19:25:19.309Z,22.52
2019-01-10T19:27:47.588Z,21.77
2019-01-10T19:30:18.579Z,22.82
2019-01-10T19:32:46.957Z,22.52
2019-01-10T19:35:15.311Z,23.20
2019-01-10T19:37:43.626Z,22.07
2019-01-10T19:40:15.111Z,21.27
2019-01-10T19:42:43.415Z,21.37
2019-01-10T19:45:14.265Z,22.32
2019-01-10T19:47:42.555Z,21.25
2019-01-10T19:50:13.943Z,21.85
2019-01-10T19:52:42.530Z,21.35
2019-01-10T19:55:12.280Z,21.85
2019-01-10T19:57:40.801Z,22.15
2019-01-10T20:00:12.357Z,21.70
2019-01-10T20:02:40.960Z,22.70
2019-01-10T20:05:09.373Z,23.32
2019-01-10T20:07:37.790Z,23.40
2019-01-10T20:10:09.374Z,21.95
2019-01-10T20:12:37.684Z,21.90
2019-01-10T20:15:07.606Z,21.90
2019-01-10T20:17:36.060Z,21.57
2019-01-10T20:20:13.719Z,20.85
2019-01-10T20:22:42.130Z,22.52
2019-01-10T20:25:10.475Z,20.88
2019-01-10T20:27:38.780Z,21.40
2019-01-10T20:30:13.574Z,21.87
2019-01-10T20:32:41.941Z,21.20
2019-01-10T20:35:10.243Z,22.45
2019-01-10T20:37:38.786Z,20.95
2019-01-10T20:40:10.452Z,21.10
2019-01-10T20:42:38.903Z,21.82
2019-01-10T20:45:09.617Z,21.60
2019-01-10T20:47:38.141Z,20.57
2019-01-10T20:50:14.147Z,21.00
2019-01-10T20:52:42.795Z,20.62
2019-01-10T20:55:18.759Z,21.95
2019-01-10T20:57:47.133Z,20.68
2019-01-10T21:00:21.514Z,20.10
2019-01-10T21:02:50.445Z,19.98
2019-01-10T21:05:19.092Z,20.95
2019-01-10T21:07:49.049Z,19.73
2019-01-10T21:10:19.664Z,20.82
2019-01-10T21:12:47.949Z,19.90
2019-01-10T21:15:21.926Z,20.75
2019-01-10T21:17:50.202Z,19.50
2019-01-10T21:20:18.481Z,20.70
2019-01-10T21:22:46.884Z,20.23
2019-01-10T21:25:16.063Z,20.37
2019-01-10T21:27:44.360Z,20.20
2019-01-10T21:30:18.377Z,20.35
2019-01-10T21:32:47.937Z,18.90
2019-01-10T21:35:16.285Z,19.67
2019-01-10T21:37:44.740Z,19.60
2019-01-10T21:40:24.188Z,20.68
2019-01-10T21:42:53.473Z,19.25
2019-01-10T21:45:22.360Z,19.85
2019-01-10T21:47:52.288Z,20.40
2019-01-10T21:50:23.492Z,19.95
2019-01-10T21:52:53.108Z,21.00
2019-01-10T21:55:21.875Z,19.52
2019-01-10T21:57:50.150Z,19.12
2019-01-10T22:00:31.517Z,20.50
2019-01-10T22:03:00.716Z,19.55
2019-01-10T22:05:29.050Z,20.37
2019-01-10T22:07:57.343Z,19.77
2019-01-10T22:10:25.693Z,20.10
2019-01-10T22:12:54.247Z,20.57
2019-01-10T22:15:22.722Z,19.73
2019-01-10T22:17:51.002Z,18.92
2019-01-10T22:20:21.214Z,18.37
2019-01-10T22:22:49.496Z,19.35
2019-01-10T22:25:18.027Z,18.98
2019-01-10T22:27:46.378Z,19.20
2019-01-10T22:30:17.485Z,20.08
2019-01-10T22:32:46.214Z,20.52
2019-01-10T22:35:16.702Z,20.00
2019-01-10T22:37:45.018Z,20.12
2019-01-10T22:40:15.561Z,20.80
2019-01-10T22:42:43.905Z,18.77
2019-01-10T22:45:12.922Z,19.25
2019-01-10T22:47:41.196Z,19.60
2019-01-10T22:50:12.469Z,19.70
2019-01-10T22:52:40.758Z,20.08
2019-01-10T22:55:11.757Z,20.80
2019-01-10T22:57:40.241Z,19.05
2019-01-10T23:00:31.304Z,19.90
2019-01-10T23:03:08.236Z,20.32
2019-01-10T23:05:43.920Z,19.45
2019-01-10T23:08:12.247Z,20.50
2019-01-10T23:10:40.611Z,19.12
2019-01-10T23:13:09.131Z,19.30
2019-01-10T23:15:38.173Z,19.80
2019-01-10T23:18:07.014Z,20.23
2019-01-10T23:20:35.324Z,19.95
2019-01-10T23:23:06.934Z,19.48
2019-01-10T23:25:35.296Z,20.70
2019-01-10T23:28:03.597Z,19.87
2019-01-10T23:30:49.952Z,19.40
2019-01-10T23:33:19.212Z,19.95
2019-01-10T23:35:49.068Z,18.60
2019-01-10T23:38:22.140Z,19.95
2019-01-10T23:40:50.437Z,19.62
2019-01-10T23:43:18.792Z,20.50
2019-01-10T23:45:47.338Z,19.32
2019-01-10T23:48:15.681Z,19.48
2019-01-10T23:50:43.955Z,20.77
2019-01-10T23:53:12.270Z,19.37
2019-01-10T23:55:40.570Z,19.57
2019-01-10T23:58:08.855Z,19.32
